KCLL/CLL METAR and TAF weather

Enter ICAO airport designator
Station Type Date Time Source
KCLL METAR 2021/02/24 17:53 UTC NOAA

KCLL 241753Z 21014G20KT 10SM BKN027 24/17 A3003 RMK AO2 SLP165 T02440167 10244 20161 51008


Station Type Date Time Source
KCLL Decoded METAR 2021/02/24 17:53 UTC NOAA

COLLEGE STN EASTERWOOD FIELD, TX, United States (KCLL) 30-35N 096-22W 96M
Feb 24, 2021 - 12:53 PM EST / 2021.02.24 1753 UTC
Wind: from the SSW (210 degrees) at 16 MPH (14 KT) gusting to 23 MPH (20 KT):0
Visibility: 10 mile(s):0
Sky conditions: mostly cloudy
Temperature: 75.9 F (24.4 C)
Dew Point: 62.1 F (16.7 C)
Relative Humidity: 62%
Pressure (altimeter): 30.03 in. Hg (1016 hPa)
Pressure tendency: 0.02 inches (0.8 hPa) higher than three hours ago
ob: KCLL 241753Z 21014G20KT 10SM BKN027 24/17 A3003 RMK AO2 SLP165 T02440167 10244 20161 51008
cycle: 18

Station Type Date Time Source
KCLL TAF 2021/02/24 18:39 UTC NOAA

TAF KCLL 241737Z 2418/2518 22012KT P6SM SCT020 BKN026
FM241900 24012KT P6SM FEW020 BKN035
FM242300 27005KT P6SM FEW025 SCT100
FM250300 36006KT P6SM FEW030
FM251100 01007KT P6SM BKN015
FM251600 04008KT P6SM BKN010

Example: see airport list